createdAt,value
2019-02-15T00:00:43.024Z,98.47
2019-02-15T00:01:43.012Z,98.26
2019-02-15T00:02:43.003Z,98.37
2019-02-15T00:03:43.025Z,98.11
2019-02-15T00:04:42.990Z,97.95
2019-02-15T00:05:42.977Z,97.91
2019-02-15T00:06:42.959Z,98.16
2019-02-15T00:07:42.948Z,98.16
2019-02-15T00:08:42.934Z,98.26
2019-02-15T00:09:42.936Z,97.63
2019-02-15T00:10:42.927Z,98.01
2019-02-15T00:11:42.910Z,97.74
2019-02-15T00:12:42.923Z,97.85
2019-02-15T00:13:42.881Z,97.95
2019-02-15T00:14:42.870Z,97.85
2019-02-15T00:15:42.861Z,97.85
2019-02-15T00:16:42.848Z,97.95
2019-02-15T00:17:42.845Z,97.42
2019-02-15T00:18:42.841Z,98.05
2019-02-15T00:19:42.817Z,97.95
2019-02-15T00:20:42.845Z,98.05
2019-02-15T00:21:42.793Z,98.26
2019-02-15T00:22:42.785Z,97.95
2019-02-15T00:23:42.783Z,98.47
2019-02-15T00:24:42.764Z,97.95
2019-02-15T00:25:42.751Z,98.05
2019-02-15T00:26:42.752Z,97.99
2019-02-15T00:27:42.736Z,98.05
2019-02-15T00:28:42.721Z,97.74
2019-02-15T00:29:42.738Z,98.31
2019-02-15T00:30:42.697Z,98.10
2019-02-15T00:31:42.699Z,98.26
2019-02-15T00:32:42.674Z,97.89
2019-02-15T00:33:42.678Z,97.78
2019-02-15T00:34:42.652Z,98.10
2019-02-15T00:35:42.646Z,98.31
2019-02-15T00:36:42.642Z,97.99
2019-02-15T00:37:42.632Z,97.78
2019-02-15T00:38:42.614Z,98.05
2019-02-15T00:39:42.598Z,97.89
2019-02-15T00:40:42.588Z,98.10
2019-02-15T00:41:42.594Z,97.16
2019-02-15T00:42:42.580Z,97.89
2019-02-15T00:43:42.554Z,97.89
2019-02-15T00:44:42.545Z,97.99
2019-02-15T00:45:42.534Z,97.78
2019-02-15T00:46:42.522Z,98.21
2019-02-15T00:47:42.551Z,98.10
2019-02-15T00:48:42.500Z,97.78
2019-02-15T00:49:42.495Z,97.89
2019-02-15T00:50:42.485Z,98.10
2019-02-15T00:51:42.468Z,97.89
2019-02-15T00:52:42.456Z,97.78
2019-02-15T00:53:42.476Z,97.89
2019-02-15T00:54:42.436Z,97.78
2019-02-15T00:55:42.424Z,97.83
2019-02-15T00:56:42.415Z,98.31
2019-02-15T00:57:42.401Z,98.35
2019-02-15T00:58:42.393Z,98.14
2019-02-15T00:59:42.402Z,97.68
2019-02-15T01:00:42.377Z,98.31
2019-02-15T01:01:42.367Z,98.25
2019-02-15T01:02:42.352Z,98.31
2019-02-15T01:03:42.338Z,97.83
2019-02-15T01:04:42.341Z,97.99
2019-02-15T01:05:42.318Z,98.52
2019-02-15T01:06:42.320Z,98.46
2019-02-15T01:07:42.294Z,98.67
2019-02-15T01:08:42.295Z,98.41
2019-02-15T01:09:42.272Z,98.67
2019-02-15T01:10:42.262Z,98.14
2019-02-15T01:11:42.250Z,98.25
2019-02-15T01:12:42.249Z,98.56
2019-02-15T01:13:42.263Z,98.46
2019-02-15T01:14:42.217Z,98.35
2019-02-15T01:15:42.208Z,98.25
2019-02-15T01:16:42.195Z,98.35
2019-02-15T01:17:42.185Z,98.04
2019-02-15T01:18:42.184Z,97.93
2019-02-15T01:19:42.176Z,98.04
2019-02-15T01:20:42.166Z,98.04
2019-02-15T01:21:42.142Z,98.04
2019-02-15T01:22:42.132Z,98.14
2019-02-15T01:23:42.120Z,98.25
2019-02-15T01:24:42.116Z,98.25
2019-02-15T01:25:42.118Z,98.56
2019-02-15T01:26:42.087Z,98.56
2019-02-15T01:27:42.076Z,98.56
2019-02-15T01:28:42.067Z,98.35
2019-02-15T01:29:42.057Z,98.04
2019-02-15T01:30:42.049Z,98.35
2019-02-15T01:31:42.060Z,98.67
2019-02-15T01:32:42.024Z,98.67
2019-02-15T01:33:42.012Z,98.56
2019-02-15T01:34:42.007Z,98.88
2019-02-15T01:35:41.995Z,98.67
2019-02-15T01:36:41.984Z,98.56
2019-02-15T01:37:42.006Z,98.14
2019-02-15T01:38:41.958Z,98.04
2019-02-15T01:39:41.948Z,98.46
2019-02-15T01:40:41.935Z,98.25
2019-02-15T01:41:41.930Z,98.08
2019-02-15T01:42:41.921Z,98.14
2019-02-15T01:43:41.939Z,98.67
2019-02-15T01:44:41.892Z,97.93
2019-02-15T01:45:41.886Z,97.56
2019-02-15T01:46:41.873Z,98.35
2019-02-15T01:47:41.872Z,98.08
2019-02-15T01:48:41.867Z,98.29
2019-02-15T01:49:41.877Z,98.29
2019-02-15T01:50:41.830Z,98.29
2019-02-15T01:51:41.819Z,98.19
2019-02-15T01:52:41.811Z,98.71
2019-02-15T01:53:41.795Z,98.08
2019-02-15T01:54:41.791Z,98.71
2019-02-15T01:55:41.807Z,98.25
2019-02-15T01:56:41.764Z,98.29
2019-02-15T01:57:41.762Z,98.19
2019-02-15T01:58:41.742Z,98.71
2019-02-15T01:59:41.734Z,98.71
2019-02-15T02:00:41.730Z,98.82
2019-02-15T02:01:41.723Z,98.71
2019-02-15T02:02:41.699Z,99.08
2019-02-15T02:03:41.689Z,98.88
2019-02-15T02:04:41.680Z,98.92
2019-02-15T02:05:41.679Z,99.34
2019-02-15T02:06:41.661Z,99.40
2019-02-15T02:07:41.644Z,98.67
2019-02-15T02:08:41.648Z,98.61
2019-02-15T02:09:41.623Z,98.50
2019-02-15T02:10:41.613Z,98.61
2019-02-15T02:11:41.606Z,98.56
2019-02-15T02:12:41.612Z,98.61
2019-02-15T02:13:49.356Z,99.03
2019-02-15T02:14:42.566Z,98.50
2019-02-15T02:15:41.562Z,98.71
2019-02-15T02:16:41.546Z,98.61
2019-02-15T02:17:41.556Z,98.50
2019-02-15T02:18:41.575Z,98.19
2019-02-15T02:19:41.515Z,98.08
2019-02-15T02:20:41.503Z,97.87
2019-02-15T02:21:41.494Z,97.56
2019-02-15T02:22:41.485Z,98.39
2019-02-15T02:23:41.487Z,98.50
2019-02-15T02:24:41.477Z,98.61
2019-02-15T02:25:41.451Z,98.29
2019-02-15T02:26:41.439Z,98.50
2019-02-15T02:27:41.429Z,98.19
2019-02-15T02:28:41.424Z,98.29
2019-02-15T02:29:41.441Z,98.34
2019-02-15T02:30:41.401Z,98.19
2019-02-15T02:31:41.391Z,98.61
2019-02-15T02:32:41.381Z,98.71
2019-02-15T02:33:41.367Z,98.71
2019-02-15T02:34:41.352Z,98.19
2019-02-15T02:35:41.371Z,98.50
2019-02-15T02:36:41.338Z,98.39
2019-02-15T02:37:41.350Z,98.39
2019-02-15T02:38:41.309Z,98.23
2019-02-15T02:39:41.298Z,98.39
2019-02-15T02:40:41.288Z,98.23
2019-02-15T02:41:41.294Z,98.19
2019-02-15T02:42:41.273Z,98.02
2019-02-15T02:43:41.255Z,97.87
2019-02-15T02:44:41.311Z,98.02
2019-02-15T02:45:41.233Z,97.50
2019-02-15T02:46:41.269Z,98.44
2019-02-15T02:47:41.212Z,98.19
2019-02-15T02:48:41.215Z,97.77
2019-02-15T02:49:41.193Z,97.60
2019-02-15T02:50:41.180Z,98.44
2019-02-15T02:51:41.171Z,98.55
2019-02-15T02:52:41.176Z,98.34
2019-02-15T02:53:41.150Z,98.61
2019-02-15T02:54:41.144Z,98.34
2019-02-15T02:55:41.124Z,98.55
2019-02-15T02:56:41.115Z,98.08
2019-02-15T02:57:41.124Z,98.65
2019-02-15T02:58:41.094Z,98.65
2019-02-15T02:59:41.082Z,98.65
2019-02-15T03:00:41.078Z,98.55
2019-02-15T03:01:41.061Z,98.13
2019-02-15T03:02:41.058Z,98.34
2019-02-15T03:03:41.054Z,98.34
2019-02-15T03:04:41.044Z,97.92
2019-02-15T03:05:41.019Z,97.81
2019-02-15T03:06:41.015Z,97.81
2019-02-15T03:07:40.996Z,98.34
2019-02-15T03:08:40.984Z,98.34
2019-02-15T03:09:41.001Z,98.55
2019-02-15T03:10:40.964Z,98.65
2019-02-15T03:11:40.950Z,97.81
2019-02-15T03:12:40.946Z,98.23
2019-02-15T03:13:40.936Z,98.02
2019-02-15T03:14:40.920Z,97.92
2019-02-15T03:15:40.922Z,97.92
2019-02-15T03:16:40.898Z,98.44
2019-02-15T03:17:40.890Z,98.65
2019-02-15T03:18:40.886Z,98.07
2019-02-15T03:19:40.865Z,97.71
2019-02-15T03:20:40.892Z,97.81
2019-02-15T03:21:40.844Z,97.64
2019-02-15T03:22:40.833Z,98.44
2019-02-15T03:23:40.828Z,97.92
2019-02-15T03:24:40.822Z,98.13
2019-02-15T03:25:40.806Z,97.92
2019-02-15T03:26:40.803Z,98.13
2019-02-15T03:27:40.778Z,97.71
2019-02-15T03:28:40.768Z,97.81
2019-02-15T03:29:40.773Z,98.28
2019-02-15T03:30:40.750Z,98.13
2019-02-15T03:31:40.769Z,98.44
2019-02-15T03:32:40.728Z,98.13
2019-02-15T03:33:40.718Z,98.34
2019-02-15T03:34:40.709Z,98.44
2019-02-15T03:35:40.694Z,98.34
2019-02-15T03:36:40.688Z,98.65
2019-02-15T03:37:40.682Z,98.34
2019-02-15T03:38:40.681Z,98.44
2019-02-15T03:39:40.647Z,98.13
2019-02-15T03:40:40.650Z,98.34
2019-02-15T03:41:40.626Z,98.44
2019-02-15T03:42:40.626Z,98.65
2019-02-15T03:43:40.607Z,98.23
2019-02-15T03:44:40.600Z,97.81
2019-02-15T03:45:40.597Z,98.23
2019-02-15T03:46:40.588Z,98.44
2019-02-15T03:47:40.585Z,97.81
2019-02-15T03:48:40.557Z,98.07
2019-02-15T03:49:40.542Z,98.23
2019-02-15T03:50:40.542Z,97.86
2019-02-15T03:51:40.522Z,98.44
2019-02-15T03:52:40.515Z,98.34
2019-02-15T03:53:40.499Z,98.17
2019-02-15T03:54:40.513Z,98.44
2019-02-15T03:55:40.478Z,98.65
2019-02-15T03:56:40.469Z,98.65
2019-02-15T03:57:40.465Z,98.02
2019-02-15T03:58:40.444Z,98.23
2019-02-15T03:59:40.447Z,98.02
2019-02-15T04:00:40.427Z,98.13
2019-02-15T04:01:40.418Z,98.44
2019-02-15T04:02:40.422Z,98.13
2019-02-15T04:03:40.391Z,98.13
2019-02-15T04:04:40.377Z,97.92
2019-02-15T04:05:40.369Z,98.59
2019-02-15T04:06:40.360Z,98.23
2019-02-15T04:07:40.381Z,98.34
2019-02-15T04:08:40.334Z,98.23
2019-02-15T04:09:40.325Z,98.13
2019-02-15T04:10:40.314Z,98.44
2019-02-15T04:11:40.300Z,98.02
2019-02-15T04:12:40.300Z,97.81
2019-02-15T04:13:40.319Z,97.39
2019-02-15T04:14:40.277Z,97.71
2019-02-15T04:15:40.259Z,97.29
2019-02-15T04:16:40.248Z,97.60
2019-02-15T04:17:40.238Z,96.87
2019-02-15T04:18:40.236Z,96.55
2019-02-15T04:19:40.228Z,96.97
2019-02-15T04:20:40.203Z,97.02
2019-02-15T04:21:40.196Z,96.49
2019-02-15T04:22:40.205Z,97.12
2019-02-15T04:23:40.177Z,97.12
2019-02-15T04:24:40.170Z,96.91
2019-02-15T04:25:40.176Z,97.64
2019-02-15T04:26:40.139Z,97.64
2019-02-15T04:27:40.132Z,97.02
2019-02-15T04:28:40.132Z,97.75
2019-02-15T04:29:40.123Z,97.86
2019-02-15T04:30:40.114Z,97.86
2019-02-15T04:31:40.086Z,97.12
2019-02-15T04:32:40.080Z,97.64
2019-02-15T04:33:40.066Z,97.86
2019-02-15T04:34:40.054Z,97.64
2019-02-15T04:35:40.056Z,97.17
2019-02-15T04:36:40.064Z,97.64
2019-02-15T04:37:40.023Z,97.33
2019-02-15T04:38:40.011Z,98.32
2019-02-15T04:39:40.001Z,98.07
2019-02-15T04:40:39.990Z,98.28
2019-02-15T04:41:39.998Z,98.49
2019-02-15T04:42:39.989Z,98.28
2019-02-15T04:43:39.958Z,98.59
2019-02-15T04:44:42.788Z,98.23
2019-02-15T04:45:39.937Z,98.34
2019-02-15T04:46:39.925Z,98.55
2019-02-15T04:47:39.958Z,98.65
2019-02-15T04:48:39.904Z,98.65
2019-02-15T04:49:39.893Z,98.55
2019-02-15T04:50:39.881Z,97.87
2019-02-15T04:51:39.871Z,98.08
2019-02-15T04:52:39.860Z,98.08
2019-02-15T04:53:39.871Z,97.62
2019-02-15T04:54:39.837Z,97.77
2019-02-15T04:55:39.825Z,96.61
2019-02-15T04:56:39.818Z,96.93
2019-02-15T04:57:39.809Z,96.30
2019-02-15T04:58:39.807Z,95.98
2019-02-15T04:59:39.797Z,95.88
2019-02-15T05:00:39.780Z,95.67
2019-02-15T05:01:39.764Z,95.72
2019-02-15T05:02:39.751Z,96.09
2019-02-15T05:03:39.775Z,95.04
2019-02-15T05:04:39.744Z,95.40
2019-02-15T05:05:39.731Z,95.72
2019-02-15T05:06:39.707Z,95.40
2019-02-15T05:07:39.696Z,95.29
2019-02-15T05:08:39.695Z,95.40
2019-02-15T05:09:39.698Z,95.82
2019-02-15T05:10:39.666Z,96.55
2019-02-15T05:11:39.666Z,96.24
2019-02-15T05:12:39.655Z,96.24
2019-02-15T05:13:39.633Z,96.13
2019-02-15T05:14:39.623Z,95.92
2019-02-15T05:15:39.650Z,95.40
2019-02-15T05:16:39.599Z,95.98
2019-02-15T05:17:39.597Z,95.50
2019-02-15T05:18:39.576Z,96.61
2019-02-15T05:19:39.581Z,96.34
2019-02-15T05:20:39.565Z,96.51
2019-02-15T05:21:39.567Z,95.88
2019-02-15T05:22:39.535Z,95.40
2019-02-15T05:23:39.537Z,96.09
2019-02-15T05:24:39.518Z,95.36
2019-02-15T05:25:39.503Z,95.46
2019-02-15T05:26:39.491Z,95.67
2019-02-15T05:27:39.497Z,95.82
2019-02-15T05:28:39.470Z,95.40
2019-02-15T05:29:39.467Z,95.46
2019-02-15T05:30:39.449Z,95.98
2019-02-15T05:31:39.441Z,95.61
2019-02-15T05:32:39.439Z,95.56
2019-02-15T05:33:39.454Z,95.25
2019-02-15T05:34:39.414Z,95.78
2019-02-15T05:35:39.407Z,95.36
2019-02-15T05:36:39.387Z,94.93
2019-02-15T05:37:39.374Z,95.19
2019-02-15T05:38:41.260Z,95.04
2019-02-15T05:39:39.364Z,95.19
2019-02-15T05:40:39.345Z,95.40
2019-02-15T05:41:39.338Z,95.19
2019-02-15T05:42:39.320Z,95.61
2019-02-15T05:43:39.310Z,95.29
2019-02-15T05:44:39.336Z,95.72
2019-02-15T05:45:39.288Z,95.56
2019-02-15T05:46:39.275Z,95.40
2019-02-15T05:47:39.271Z,95.82
2019-02-15T05:48:39.255Z,95.40
2019-02-15T05:49:39.247Z,95.88
2019-02-15T05:50:39.254Z,95.36
2019-02-15T05:51:39.230Z,95.82
2019-02-15T05:52:39.212Z,95.46
2019-02-15T05:53:39.207Z,96.45
2019-02-15T05:54:39.188Z,96.66
2019-02-15T05:55:39.181Z,96.09
2019-02-15T05:56:39.182Z,96.30
2019-02-15T05:57:39.156Z,96.13
2019-02-15T05:58:39.146Z,95.61
2019-02-15T05:59:39.144Z,94.98
2019-02-15T06:00:39.127Z,95.19
2019-02-15T06:01:39.137Z,94.87
2019-02-15T06:02:39.104Z,95.19
2019-02-15T06:03:39.096Z,94.87
2019-02-15T06:04:39.080Z,95.19
2019-02-15T06:05:39.175Z,95.40
2019-02-15T06:06:39.060Z,95.40
2019-02-15T06:07:39.084Z,96.13
2019-02-15T06:08:39.050Z,95.61
2019-02-15T06:09:39.034Z,95.72
2019-02-15T06:10:39.015Z,95.50
2019-02-15T06:11:39.016Z,95.82
2019-02-15T06:12:38.996Z,95.61
2019-02-15T06:13:39.007Z,95.50
2019-02-15T06:14:38.975Z,95.08
2019-02-15T06:15:38.964Z,95.34
2019-02-15T06:16:38.957Z,95.13
2019-02-15T06:17:38.951Z,94.92
2019-02-15T06:18:38.930Z,95.54
2019-02-15T06:19:38.933Z,95.54
2019-02-15T06:20:38.907Z,95.76
2019-02-15T06:21:38.898Z,96.28
2019-02-15T06:22:38.895Z,96.24
2019-02-15T06:23:38.887Z,96.45
2019-02-15T06:24:38.881Z,96.34
2019-02-15T06:25:38.864Z,96.34
2019-02-15T06:26:38.856Z,96.34
2019-02-15T06:27:38.833Z,96.34
2019-02-15T06:28:38.823Z,96.24
2019-02-15T06:29:38.833Z,95.92
2019-02-15T06:30:38.815Z,96.13
2019-02-15T06:31:38.803Z,95.92
2019-02-15T06:32:38.784Z,95.92
2019-02-15T06:33:38.768Z,95.61
2019-02-15T06:34:38.795Z,95.44
2019-02-15T06:35:38.757Z,95.97
2019-02-15T06:36:38.735Z,95.08
2019-02-15T06:37:38.748Z,95.02
2019-02-15T06:38:38.724Z,95.50
2019-02-15T06:39:38.704Z,95.86
2019-02-15T06:40:38.706Z,95.54
2019-02-15T06:41:38.688Z,95.86
2019-02-15T06:42:38.682Z,95.40
2019-02-15T06:43:38.661Z,95.92
2019-02-15T06:44:38.659Z,96.03
2019-02-15T06:45:38.667Z,95.50
2019-02-15T06:46:38.643Z,95.82
2019-02-15T06:47:38.629Z,95.61
2019-02-15T06:48:38.609Z,95.50
2019-02-15T06:49:38.602Z,95.29
2019-02-15T06:50:38.585Z,94.67
2019-02-15T06:51:38.601Z,95.44
2019-02-15T06:52:38.563Z,95.61
2019-02-15T06:53:38.558Z,95.92
2019-02-15T06:54:38.542Z,94.71
2019-02-15T06:55:38.532Z,94.87
2019-02-15T06:56:38.530Z,94.56
2019-02-15T06:57:38.533Z,94.87
2019-02-15T06:58:45.496Z,95.29
2019-02-15T06:59:39.492Z,95.19
2019-02-15T07:00:38.479Z,94.67
2019-02-15T07:01:38.467Z,95.08
2019-02-15T07:02:38.455Z,94.87
2019-02-15T07:03:40.135Z,94.87
2019-02-15T07:04:38.435Z,94.67
2019-02-15T07:05:38.431Z,95.15
2019-02-15T07:06:38.419Z,96.09
2019-02-15T07:07:38.410Z,95.78
2019-02-15T07:08:38.401Z,95.15
2019-02-15T07:09:38.382Z,94.93
2019-02-15T07:10:38.369Z,94.47
2019-02-15T07:11:38.365Z,94.37
2019-02-15T07:12:38.346Z,94.37
2019-02-15T07:13:38.349Z,94.79
2019-02-15T07:14:38.327Z,94.68
2019-02-15T07:15:38.329Z,95.10
2019-02-15T07:16:38.311Z,94.95
2019-02-15T07:17:38.302Z,94.64
2019-02-15T07:18:38.284Z,94.64
2019-02-15T07:19:38.316Z,95.27
2019-02-15T07:20:38.262Z,93.70
2019-02-15T07:21:38.249Z,93.55
2019-02-15T07:22:38.246Z,93.65
2019-02-15T07:23:38.235Z,93.19
2019-02-15T07:24:38.217Z,93.40
2019-02-15T07:25:38.220Z,93.34
2019-02-15T07:26:38.210Z,93.51
2019-02-15T07:27:38.185Z,93.51
2019-02-15T07:28:38.192Z,93.40
2019-02-15T07:29:38.173Z,93.08
2019-02-15T07:30:38.162Z,93.08
2019-02-15T07:31:38.144Z,93.30
2019-02-15T07:32:38.137Z,92.57
2019-02-15T07:33:38.133Z,92.57
2019-02-15T07:34:38.116Z,92.25
2019-02-15T07:35:38.105Z,92.57
2019-02-15T07:36:38.089Z,92.46
2019-02-15T07:37:38.078Z,92.04
2019-02-15T07:38:38.078Z,92.46
2019-02-15T07:39:38.055Z,91.83
2019-02-15T07:40:38.047Z,91.94
2019-02-15T07:41:38.040Z,91.94
2019-02-15T07:42:38.021Z,92.31
2019-02-15T07:43:38.027Z,92.46
2019-02-15T07:44:38.008Z,92.21
2019-02-15T07:45:42.786Z,92.10
2019-02-15T07:46:38.976Z,92.00
2019-02-15T07:47:37.975Z,92.16
2019-02-15T07:48:37.963Z,92.83
2019-02-15T07:49:37.944Z,92.48
2019-02-15T07:50:37.957Z,92.48
2019-02-15T07:51:37.924Z,93.11
2019-02-15T07:52:37.911Z,93.59
2019-02-15T07:53:37.907Z,93.52
2019-02-15T07:54:37.892Z,92.44
2019-02-15T07:55:37.880Z,91.18
2019-02-15T07:56:37.904Z,90.09
2019-02-15T07:57:37.857Z,89.68
2019-02-15T07:58:37.846Z,87.69
2019-02-15T07:59:37.844Z,87.13
2019-02-15T08:00:37.824Z,87.09
2019-02-15T08:01:37.814Z,87.51
2019-02-15T08:02:37.826Z,86.00
2019-02-15T08:03:37.795Z,85.17
2019-02-15T08:04:37.780Z,84.61
2019-02-15T08:05:37.779Z,84.57
2019-02-15T08:06:37.760Z,83.91
2019-02-15T08:07:37.750Z,83.80
2019-02-15T08:08:37.759Z,83.07
2019-02-15T08:09:37.727Z,82.93
2019-02-15T08:10:39.442Z,80.54
2019-02-15T08:11:37.707Z,81.16
2019-02-15T08:12:37.697Z,79.98
2019-02-15T08:13:37.701Z,80.19
2019-02-15T08:14:37.671Z,80.08
2019-02-15T08:15:37.660Z,78.52
2019-02-15T08:16:38.838Z,80.15
2019-02-15T08:17:37.648Z,80.77
2019-02-15T08:18:37.627Z,79.52
2019-02-15T08:19:37.630Z,79.63
2019-02-15T08:20:37.605Z,79.63
2019-02-15T08:21:37.602Z,79.32
2019-02-15T08:22:37.616Z,79.83
2019-02-15T08:23:37.579Z,78.86
2019-02-15T08:24:37.561Z,78.14
2019-02-15T08:25:37.551Z,78.03
2019-02-15T08:26:37.541Z,78.34
2019-02-15T08:27:37.530Z,79.28
2019-02-15T08:28:37.556Z,79.28
2019-02-15T08:29:37.519Z,78.34
2019-02-15T08:30:37.496Z,78.55
2019-02-15T08:31:37.486Z,78.66
2019-02-15T08:32:37.477Z,77.61
2019-02-15T08:33:37.469Z,77.69
2019-02-15T08:34:37.472Z,76.43
2019-02-15T08:35:37.457Z,77.06
2019-02-15T08:36:37.431Z,76.12
2019-02-15T08:37:37.419Z,76.64
2019-02-15T08:38:37.454Z,76.09
2019-02-15T08:39:37.398Z,75.98
2019-02-15T08:40:37.615Z,75.85
2019-02-15T08:41:37.382Z,76.37
2019-02-15T08:42:37.368Z,76.06
2019-02-15T08:43:37.355Z,74.49
2019-02-15T08:44:37.362Z,76.06
2019-02-15T08:45:37.335Z,75.01
2019-02-15T08:46:37.320Z,74.26
2019-02-15T08:47:37.315Z,74.26
2019-02-15T08:48:45.691Z,74.77
2019-02-15T08:49:38.289Z,72.87
2019-02-15T08:50:37.279Z,72.80
2019-02-15T08:51:37.270Z,73.08
2019-02-15T08:52:37.255Z,72.87
2019-02-15T08:53:37.250Z,71.49
2019-02-15T08:54:37.256Z,72.53
2019-02-15T08:55:37.223Z,70.56
2019-02-15T08:56:37.212Z,72.11
2019-02-15T08:57:37.206Z,71.56
2019-02-15T08:58:37.230Z,71.14
2019-02-15T08:59:37.186Z,71.35
2019-02-15T09:00:37.169Z,72.08
2019-02-15T09:01:37.157Z,71.25
2019-02-15T09:02:37.146Z,70.52
2019-02-15T09:03:37.136Z,69.87
2019-02-15T09:04:37.146Z,71.32
2019-02-15T09:05:37.127Z,71.22
2019-02-15T09:06:37.102Z,69.14
2019-02-15T09:07:37.091Z,69.56
2019-02-15T09:08:37.081Z,70.36
2019-02-15T09:09:37.423Z,70.36
2019-02-15T09:10:37.058Z,69.18
2019-02-15T09:11:37.053Z,69.39
2019-02-15T09:12:37.037Z,69.98
2019-02-15T09:13:37.027Z,69.46
2019-02-15T09:14:37.016Z,69.56
2019-02-15T09:15:37.025Z,70.08
2019-02-15T09:16:36.995Z,69.15
2019-02-15T09:17:36.987Z,70.15
2019-02-15T09:18:36.974Z,69.95
2019-02-15T09:19:37.023Z,69.01
2019-02-15T09:20:36.973Z,68.91
2019-02-15T09:21:36.936Z,68.49
2019-02-15T09:22:36.929Z,67.67
2019-02-15T09:23:36.927Z,68.29
2019-02-15T09:24:36.911Z,67.64
2019-02-15T09:25:36.913Z,65.78
2019-02-15T09:26:36.910Z,66.26
2019-02-15T09:27:36.870Z,65.95
2019-02-15T09:28:36.857Z,66.67
2019-02-15T09:29:36.848Z,67.30
2019-02-15T09:30:36.887Z,65.72
2019-02-15T09:31:36.824Z,63.65
2019-02-15T09:32:36.821Z,64.24
2019-02-15T09:33:36.805Z,64.24
2019-02-15T09:34:36.793Z,63.42
2019-02-15T09:35:36.779Z,64.31
2019-02-15T09:36:36.799Z,64.93
2019-02-15T09:37:36.777Z,65.03
2019-02-15T09:38:36.746Z,64.83
2019-02-15T09:39:36.736Z,64.31
2019-02-15T09:40:36.724Z,64.31
2019-02-15T09:41:36.734Z,65.55
2019-02-15T09:42:36.711Z,65.03
2019-02-15T09:43:36.693Z,64.90
2019-02-15T09:44:36.683Z,64.90
2019-02-15T09:45:36.671Z,65.42
2019-02-15T09:46:36.679Z,65.00
2019-02-15T09:47:36.671Z,64.98
2019-02-15T09:48:36.661Z,64.59
2019-02-15T09:49:36.632Z,64.98
2019-02-15T09:50:36.618Z,64.56
2019-02-15T09:51:36.606Z,64.36
2019-02-15T09:52:36.628Z,63.43
2019-02-15T09:53:36.584Z,64.56
2019-02-15T09:54:36.582Z,63.92
2019-02-15T09:55:36.566Z,63.71
2019-02-15T09:56:36.549Z,63.40
2019-02-15T09:57:36.538Z,64.02
2019-02-15T09:58:36.548Z,64.74
2019-02-15T09:59:36.517Z,64.02
2019-02-15T10:00:36.517Z,62.65
2019-02-15T10:01:36.494Z,63.37
2019-02-15T10:02:36.506Z,62.85
2019-02-15T10:03:36.471Z,63.47
2019-02-15T10:04:36.466Z,62.82
2019-02-15T10:05:36.458Z,63.54
2019-02-15T10:06:36.447Z,62.52
2019-02-15T10:07:36.429Z,60.63
2019-02-15T10:08:36.436Z,61.05
2019-02-15T10:09:36.406Z,60.71
2019-02-15T10:10:36.396Z,60.19
2019-02-15T10:11:36.388Z,59.34
2019-02-15T10:12:36.407Z,60.68
2019-02-15T10:13:36.361Z,60.68
2019-02-15T10:14:36.352Z,60.06
2019-02-15T10:15:36.350Z,58.93
2019-02-15T10:16:36.329Z,58.73
2019-02-15T10:17:36.319Z,60.24
2019-02-15T10:18:36.336Z,59.03
2019-02-15T10:19:36.318Z,57.78
2019-02-15T10:20:36.288Z,59.01
2019-02-15T10:21:36.271Z,57.75
2019-02-15T10:22:36.261Z,58.87
2019-02-15T10:23:36.256Z,58.47
2019-02-15T10:24:36.287Z,58.26
2019-02-15T10:25:36.228Z,58.47
2019-02-15T10:26:36.216Z,56.93
2019-02-15T10:27:36.207Z,58.23
2019-02-15T10:28:36.195Z,57.62
2019-02-15T10:29:36.185Z,56.82
2019-02-15T10:30:36.203Z,59.08
2019-02-15T10:31:36.163Z,59.36
2019-02-15T10:32:36.150Z,57.00
2019-02-15T10:33:36.149Z,57.82
2019-02-15T10:34:36.134Z,58.23
2019-02-15T10:35:36.138Z,59.06
2019-02-15T10:36:36.125Z,57.62
2019-02-15T10:37:36.094Z,56.46
2019-02-15T10:38:36.105Z,57.39
2019-02-15T10:39:36.077Z,57.39
2019-02-15T10:40:36.065Z,57.70
2019-02-15T10:41:36.053Z,57.28
2019-02-15T10:42:36.073Z,55.95
2019-02-15T10:43:36.039Z,56.23
2019-02-15T10:44:36.021Z,57.15
2019-02-15T10:45:36.030Z,57.77
2019-02-15T10:46:37.848Z,57.77
2019-02-15T10:47:35.987Z,57.46
2019-02-15T10:48:35.975Z,57.77
2019-02-15T10:49:35.991Z,58.26
2019-02-15T10:50:35.953Z,58.59
2019-02-15T10:51:35.942Z,59.41
2019-02-15T10:52:35.932Z,59.11
2019-02-15T10:53:35.922Z,56.92
2019-02-15T10:54:35.927Z,56.82
2019-02-15T10:55:38.022Z,55.79
2019-02-15T10:56:35.887Z,56.69
2019-02-15T10:57:35.906Z,56.79
2019-02-15T10:58:35.865Z,57.00
2019-02-15T10:59:35.856Z,58.44
2019-02-15T11:00:35.842Z,57.03
2019-02-15T11:01:35.840Z,56.28
2019-02-15T11:02:35.821Z,56.90
2019-02-15T11:03:36.654Z,55.66
2019-02-15T11:04:35.800Z,56.79
2019-02-15T11:05:35.788Z,56.38
2019-02-15T11:06:35.777Z,56.90
2019-02-15T11:07:35.772Z,55.54
2019-02-15T11:08:35.756Z,55.54
2019-02-15T11:09:35.768Z,55.13
2019-02-15T11:10:35.732Z,56.26
2019-02-15T11:11:35.721Z,55.85
2019-02-15T11:12:35.709Z,56.35
2019-02-15T11:13:35.700Z,55.64
2019-02-15T11:14:35.696Z,56.67
2019-02-15T11:15:35.696Z,57.48
2019-02-15T11:16:35.667Z,57.79
2019-02-15T11:17:35.655Z,55.64
2019-02-15T11:18:35.643Z,55.43
2019-02-15T11:19:35.630Z,57.15
2019-02-15T11:20:35.645Z,56.46
2019-02-15T11:21:35.607Z,56.05
2019-02-15T11:22:35.623Z,55.72
2019-02-15T11:23:35.585Z,55.72
2019-02-15T11:24:35.575Z,53.26
2019-02-15T11:25:35.563Z,55.18
2019-02-15T11:26:35.554Z,55.28
2019-02-15T11:27:35.540Z,54.18
2019-02-15T11:28:35.559Z,55.00
2019-02-15T11:29:35.517Z,54.77
2019-02-15T11:30:35.506Z,54.97
2019-02-15T11:31:35.497Z,56.10
2019-02-15T11:32:35.490Z,55.90
2019-02-15T11:33:35.498Z,55.26
2019-02-15T11:34:35.462Z,54.64
2019-02-15T11:35:35.475Z,54.03
2019-02-15T11:36:35.441Z,55.15
2019-02-15T11:37:35.446Z,54.64
2019-02-15T11:38:35.419Z,54.72
2019-02-15T11:39:35.425Z,54.41
2019-02-15T11:40:35.395Z,54.85
2019-02-15T11:41:35.383Z,53.19
2019-02-15T11:42:35.372Z,53.00
2019-02-15T11:43:35.361Z,52.29
2019-02-15T11:44:35.378Z,53.52
2019-02-15T11:45:35.339Z,55.56
2019-02-15T11:46:35.327Z,55.15
2019-02-15T11:47:35.316Z,54.44
2019-02-15T11:48:35.305Z,53.49
2019-02-15T11:49:35.343Z,53.49
2019-02-15T11:50:35.287Z,52.16
2019-02-15T11:51:35.271Z,53.49
2019-02-15T11:52:35.260Z,54.61
2019-02-15T11:53:35.250Z,53.69
2019-02-15T11:54:35.240Z,54.21
2019-02-15T11:55:35.253Z,55.23
2019-02-15T11:56:35.227Z,55.84
2019-02-15T11:57:35.211Z,54.54
2019-02-15T11:58:35.211Z,53.49
2019-02-15T11:59:35.182Z,53.39
2019-02-15T12:00:35.180Z,54.82
2019-02-15T12:01:35.190Z,55.02
2019-02-15T12:02:35.162Z,55.46
2019-02-15T12:03:35.138Z,53.62
2019-02-15T12:04:35.132Z,53.19
2019-02-15T12:05:35.116Z,55.74
2019-02-15T12:06:35.105Z,53.08
2019-02-15T12:07:35.114Z,52.85
2019-02-15T12:08:35.090Z,54.92
2019-02-15T12:09:35.071Z,54.82
2019-02-15T12:10:35.062Z,54.41
2019-02-15T12:11:35.050Z,53.59
2019-02-15T12:12:35.059Z,54.82
2019-02-15T12:13:35.048Z,53.49
2019-02-15T12:14:35.025Z,54.08
2019-02-15T12:15:35.016Z,54.69
2019-02-15T12:16:34.994Z,54.00
2019-02-15T12:17:35.002Z,52.06
2019-02-15T12:18:34.971Z,54.59
2019-02-15T12:19:34.980Z,53.54
2019-02-15T12:20:34.951Z,53.64
2019-02-15T12:21:34.941Z,54.46
2019-02-15T12:22:34.934Z,53.23
2019-02-15T12:23:34.935Z,53.03
2019-02-15T12:24:34.906Z,51.50
2019-02-15T12:25:34.895Z,51.78
2019-02-15T12:26:34.884Z,51.57
2019-02-15T12:27:34.878Z,53.52
2019-02-15T12:28:34.885Z,51.17
2019-02-15T12:29:34.850Z,51.70
2019-02-15T12:30:34.856Z,53.42
2019-02-15T12:31:34.827Z,53.01
2019-02-15T12:32:34.816Z,53.54
2019-02-15T12:33:34.813Z,52.29
2019-02-15T12:34:34.817Z,54.44
2019-02-15T12:35:34.788Z,53.31
2019-02-15T12:36:34.776Z,54.16
2019-02-15T12:37:34.759Z,54.77
2019-02-15T12:38:34.748Z,54.49
2019-02-15T12:39:34.761Z,54.77
2019-02-15T12:40:34.776Z,52.75
2019-02-15T12:41:34.716Z,55.41
2019-02-15T12:42:34.710Z,54.59
2019-02-15T12:43:34.694Z,54.49
2019-02-15T12:44:34.684Z,55.18
2019-02-15T12:45:34.671Z,55.18
2019-02-15T12:46:34.682Z,54.57
2019-02-15T12:47:34.650Z,55.49
2019-02-15T12:48:34.689Z,53.03
2019-02-15T12:49:34.628Z,54.26
2019-02-15T12:50:34.618Z,53.21
2019-02-15T12:51:34.605Z,54.13
2019-02-15T12:52:34.601Z,54.46